Hub


Voltar

 INFORMAÇÕES METEOROLÓGICAS

METAR FOR SBBH


ADDS - METARS form results

(0337 UTC 24 March 2019)
Data provider http://aviationweather.gov/metar/data/
 
METAR text: SBBH 240300Z 09008KT CAVOK 21/17 Q1019
Conditions at: SBBH (BELO HORIZ/PAMPU, BR) observed 0300 UTC 24 March 2019
Temperature: 21.0°C (70°F)
Dewpoint: 17.0°C (63°F) [RH = 78%]
Pressure (altimeter): 30.09 inches Hg (1019.0 mb)
Winds: from the E (90 degrees) at 9 MPH (8 knots; 4.1 m/s)
Visibility: 6 or more miles (10+ km)
Ceiling: ceiling and visibility are OK
Clouds: unknown
Weather: no significant weather observed at this time


 MAPA DO AEROPORTO


 INFORMAÇÕES DA PISTA

Pista 13 Tamanho da pista 8333 ft Largura da pista 148 ft
Elevação da pista 0 ft Ranhura da pista 0 ft Proa da pista 0
Pista 31 Tamanho da pista 8333 ft Largura da pista 148 ft
Elevação da pista 0 ft Ranhura da pista 0 ft Proa da pista 0

 FREQUÊNCIAS DO AEROPORTO

Tipo APP Nome BELO HORIZ Frequência 120.2 MHZ
Tipo ATIS Nome BELO HORIZ Frequência 127.45 MHZ
Tipo CLD Nome BELO HORIZ Frequência 121.1 MHZ
Tipo GND Nome GND Frequência 121.6 MHZ
Tipo OPS Nome SAO PAULO Frequência 122.5 MHZ
Tipo TWR Nome BELO HORIZ Frequência 118 MHZ

 AUXÍLIOS DE NAVEGAÇÃO PRÓXIMOS AO AEROPORTO

Tipo VOR-DME Nome Belo Horizonte Frequência 117700 KHZ
Tipo NDB Nome Belo Horizonte Frequência 520 KHZ